Latest Weather Observations for Katanning RS

IDW60801

Issued at 5:32 pm WST Thursday 2 July 2015 (issued every 30 minutes, with the page automatically refreshed every 10 minutes)

About weather observations | Map of weather stations | Latest weather observations for WA | Other Formats
Station Details ID: 010916 Name: KATANNING Lat: -33.69 Lon: 117.61 Height: 320.0 m
Data from the previous 72 hours. | See also: Recent months at Katanning RS
Date/Time
WST
Temp
°C
App
Temp
°C
Dew
Point
Rel
Hum
%
Delta-T
°C
Wind Press
QNH
hPa
Press
MSL
hPa
Rain
since 9 am
mm
Dir
 
Spd
km/h
Gust
km/h
Spd
kts
Gust
kts
02/05:30pm 13.6 11.9 7.6 67 3.0 N 6 7 3 4 1021.7 1022.0 0.2
02/05:00pm 14.7 12.8 7.7 63 3.5 N 7 9 4 5 1021.8 1022.1 0.2
02/04:30pm 15.8 13.1 7.3 57 4.3 N 11 17 6 9 1021.6 1021.9 0.2
02/04:00pm 16.8 12.9 7.2 53 4.8 N 17 24 9 13 1021.6 1021.9 0.2
02/03:30pm 17.3 12.8 6.8 50 5.3 N 20 30 11 16 1021.8 1022.1 0.2
02/03:00pm 17.1 13.3 7.5 53 4.9 N 17 24 9 13 1021.9 1022.2 0.2
02/02:30pm 17.0 13.7 7.9 55 4.7 N 15 24 8 13 1021.6 1021.9 0.2
02/02:00pm 17.1 13.1 8.3 56 4.5 N 19 28 10 15 1021.6 1021.9 0.2
02/01:30pm 16.2 12.7 8.7 61 3.9 N 17 24 9 13 1021.9 1022.2 0.2
02/01:00pm 15.1 12.9 9.2 68 3.1 N 11 15 6 8 1022.1 1022.4 0.2
02/12:30pm 14.2 10.6 8.4 68 3.0 N 17 24 9 13 1022.7 1022.9 0.2
02/12:00pm 14.4 11.9 8.1 66 3.2 N 11 15 6 8 1023.2 1023.4 0.0
02/11:30am 14.5 12.4 8.2 66 3.2 N 9 15 5 8 1023.6 1023.8 0.0
02/11:00am 13.8 11.3 8.4 70 2.7 NNE 11 15 6 8 1024.0 1024.2 0.0
02/10:30am 13.2 11.7 9.1 76 2.1 NNE 7 9 4 5 1024.4 1024.7 0.0
02/10:00am 12.9 11.4 9.0 77 2.0 N 7 11 4 6 1024.7 1025.0 0.0
02/09:30am 12.2 10.9 9.9 86 1.2 NNE 7 11 4 6 1024.7 1025.0 0.0
02/09:00am 11.6 11.5 9.5 87 1.1 CALM 0 0 0 0 1024.4 1024.7 0.4
02/08:30am 11.4 10.5 9.3 87 1.1 NNE 4 6 2 3 1024.1 1024.4 0.4
02/08:00am 11.1 9.6 9.0 87 1.1 N 7 9 4 5 1024.1 1024.4 0.4
02/07:30am 11.2 9.3 8.9 86 1.2 N 9 17 5 9 1024.1 1024.4 0.4
02/07:00am 11.2 9.2 8.8 85 1.2 NNE 9 15 5 8 1024.0 1024.2 0.4
02/06:30am 11.5 8.3 8.5 82 1.5 N 15 24 8 13 1024.3 1024.6 0.4
02/06:00am 11.5 9.6 8.9 84 1.3 N 9 11 5 6 1024.4 1024.7 0.4
02/05:30am 11.4 9.0 8.6 83 1.4 NNW 11 17 6 9 1024.6 1024.9 0.4
02/05:00am 11.9 9.4 8.2 78 1.8 NW 11 19 6 10 1024.4 1024.7 0.2
02/04:30am 13.2 10.4 7.0 66 3.1 NW 11 19 6 10 1024.5 1024.8 0.0
02/04:00am 13.0 9.5 7.0 67 2.9 NNW 15 20 8 11 1023.7 1023.9 0.0
02/03:30am 13.2 10.5 7.4 68 2.9 NNW 11 19 6 10 1023.9 1024.1 0.0
02/03:00am 12.6 10.6 6.9 68 2.8 N 7 11 4 6 1024.2 1024.5 0.0
02/02:30am 12.7 11.2 7.0 68 2.8 NNW 4 7 2 4 1024.6 1024.9 0.0
02/02:00am 12.9 11.0 6.5 65 3.1 NNW 6 9 3 5 1024.5 1024.8 0.0
02/01:30am 13.2 11.3 6.5 64 3.2 N 6 9 3 5 1024.5 1024.8 0.0
02/01:00am 13.0 11.3 7.5 69 2.7 N 6 7 3 4 1024.8 1025.1 0.0
02/12:30am 13.0 11.3 7.7 70 2.6 NNE 6 7 3 4 1024.7 1025.0 0.0
02/12:00am 13.1 12.0 6.7 65 3.1 NW 2 4 1 2 1024.8 1025.1 0.0
 
Date/Time
WST
Temp
°C
App
Temp
°C
Dew
Point
Rel
Hum
%
Delta-T
°C
Wind Press
QNH
hPa
Press
MSL
hPa
Rain
since 9 am
mm
Dir
 
Spd
km/h
Gust
km/h
Spd
kts
Gust
kts
01/11:30pm 13.8 12.9 6.2 60 3.7 CALM 0 0 0 0 1025.3 1025.6 0.0
01/11:00pm 14.0 12.3 6.1 59 3.8 NNW 4 6 2 3 1025.2 1025.5 0.0
01/10:30pm 14.2 12.6 6.3 59 3.9 NNW 4 6 2 3 1025.3 1025.6 0.0
01/10:00pm 14.5 12.9 6.3 58 4.0 N 4 6 2 3 1025.0 1025.3 0.0
01/09:30pm 14.0 12.2 7.1 63 3.4 N 6 6 3 3 1024.7 1025.0 0.0
01/09:00pm 13.6 12.8 6.7 63 3.4 CALM 0 0 0 0 1024.8 1025.1 0.0
01/08:30pm 14.6 12.9 7.4 62 3.6 N 6 7 3 4 1025.2 1025.5 0.0
01/08:00pm 14.8 13.1 7.6 62 3.6 NNW 6 9 3 5 1025.4 1025.7 0.0
01/07:30pm 14.8 13.5 7.6 62 3.6 NW 4 4 2 2 1025.3 1025.6 0.0
01/07:00pm 15.0 13.3 7.5 61 3.8 N 6 9 3 5 1024.9 1025.2 0.0
01/06:30pm 15.4 14.9 7.7 60 3.9 CALM 0 6 0 3 1024.9 1025.2 0.0
01/06:00pm 15.6 14.5 8.4 62 3.7 N 4 4 2 2 1024.5 1024.8 0.0
01/05:30pm 16.6 16.0 7.3 54 4.7 CALM 0 2 0 1 1024.6 1024.9 0.0
01/05:00pm 16.8 15.6 8.2 57 4.4 NNW 4 6 2 3 1024.5 1024.8 0.0
01/04:30pm 17.6 15.9 7.6 52 5.1 N 6 7 3 4 1024.3 1024.6 0.0
01/04:00pm 18.3 16.6 7.4 49 5.6 N 6 7 3 4 1024.1 1024.4 0.0
01/03:30pm 18.6 17.0 6.4 45 6.2 NNW 4 6 2 3 1024.1 1024.4 0.0
01/03:00pm 18.9 17.0 6.7 45 6.2 NNW 6 9 3 5 1023.9 1024.1 0.0
01/02:30pm 19.4 17.9 6.8 44 6.4 NNW 4 7 2 4 1023.8 1024.0 0.0
01/02:00pm 18.8 17.4 5.6 42 6.5 NNW 2 6 1 3 1024.0 1024.2 0.0
01/01:30pm 19.0 16.9 6.8 45 6.2 NNW 7 9 4 5 1024.2 1024.5 0.0
01/01:00pm 18.8 16.6 6.0 43 6.4 N 7 11 4 6 1024.4 1024.7 0.0
01/12:30pm 18.5 16.6 5.0 41 6.6 N 4 9 2 5 1024.6 1024.9 0.0
01/12:00pm 18.4 16.3 5.9 44 6.2 N 6 11 3 6 1025.0 1025.3 0.0
01/11:30am 18.0 16.8 6.5 47 5.8 NE 2 7 1 4 1025.0 1025.3 0.0
01/11:00am 17.0 16.1 6.2 49 5.3 CALM 0 4 0 2 1025.1 1025.4 0.0
01/10:30am 16.0 14.3 5.9 51 5.0 NNE 4 7 2 4 1025.6 1025.8 0.0
01/10:00am 14.9 13.0 5.1 52 4.7 N 4 6 2 3 1025.7 1025.9 0.0
01/09:30am 13.9 11.8 5.8 58 3.9 N 6 7 3 4 1025.8 1026.0 0.0
01/09:00am 12.2 11.2 5.8 65 3.0 CALM 0 0 0 0 1025.3 1025.6 0.0
01/08:30am 10.6 8.9 6.0 73 2.2 ENE 4 4 2 2 1025.0 1025.3 0.0
01/08:00am 8.1 6.7 3.8 74 1.9 CALM 0 0 0 0 1025.2 1025.5 0.0
01/07:30am 8.7 7.4 3.9 72 2.1 CALM 0 0 0 0 1024.9 1025.0 0.0
01/07:00am 8.7 7.4 4.1 73 2.0 CALM 0 2 0 1 1024.7 1024.8 0.0
01/06:30am 9.0 7.6 3.6 69 2.4 CALM 0 0 0 0 1024.5 1024.6 0.0
01/06:00am 9.3 8.0 4.3 71 2.2 CALM 0 0 0 0 1024.3 1024.4 0.0
01/05:30am 9.3 8.2 4.9 74 2.0 CALM 0 0 0 0 1024.4 1024.5 0.0
01/05:00am 9.9 8.8 4.9 71 2.3 CALM 0 2 0 1 1024.3 1024.4 0.0
01/04:30am 10.0 8.8 4.4 68 2.5 CALM 0 0 0 0 1024.0 1024.1 0.0
01/04:00am 9.9 8.6 4.1 67 2.6 CALM 0 0 0 0 1023.9 1024.0 0.0
01/03:30am 9.8 8.5 4.0 67 2.6 CALM 0 0 0 0 1024.0 1024.1 0.0
01/03:00am 9.9 8.6 4.1 67 2.6 CALM 0 0 0 0 1024.1 1024.2 0.0
01/02:30am 10.2 9.0 4.4 67 2.6 CALM 0 0 0 0 1024.2 1024.3 0.0
01/02:00am 10.4 9.1 4.3 66 2.8 CALM 0 0 0 0 1024.1 1024.2 0.0
01/01:30am 11.6 9.9 3.9 59 3.5 N 2 4 1 2 1024.1 1024.2 0.0
01/01:00am 10.4 8.4 4.3 66 2.8 N 4 6 2 3 1024.2 1024.3 0.0
01/12:30am 11.0 9.7 4.0 62 3.2 CALM 0 0 0 0 1024.1 1024.2 0.0
01/12:00am 10.4 9.1 4.1 65 2.8 CALM 0 0 0 0 1024.1 1024.2 0.0
 
Date/Time
WST
Temp
°C
App
Temp
°C
Dew
Point
Rel
Hum
%
Delta-T
°C
Wind Press
QNH
hPa
Press
MSL
hPa
Rain
since 9 am
mm
Dir
 
Spd
km/h
Gust
km/h
Spd
kts
Gust
kts
30/11:30pm 10.7 9.4 4.2 64 3.0 CALM 0 0 0 0 1024.1 1024.2 0.0
30/11:00pm 10.5 9.2 4.0 64 2.9 CALM 0 0 0 0 1024.3 1024.4 0.0
30/10:30pm 10.9 9.1 3.5 60 3.3 N 2 4 1 2 1024.4 1024.5 0.0
30/10:00pm 11.7 10.2 3.2 56 3.8 CALM 0 0 0 0 1023.7 1023.8 0.0
30/09:30pm 11.7 10.2 3.0 55 3.9 CALM 0 0 0 0 1023.9 1024.0 0.0
30/09:00pm 11.9 10.5 3.4 56 3.8 CALM 0 0 0 0 1024.6 1024.7 0.0
30/08:30pm 12.3 10.9 3.3 54 4.1 CALM 0 0 0 0 1024.1 1024.2 0.0
30/08:00pm 13.8 11.5 3.0 48 4.9 NW 4 6 2 3 1024.2 1024.3 0.0
30/07:30pm 13.3 11.8 2.8 49 4.7 CALM 0 4 0 2 1023.7 1023.8 0.0
30/07:00pm 13.9 11.7 3.1 48 4.9 NNW 4 4 2 2 1023.5 1023.6 0.0
30/06:30pm 13.3 10.7 3.1 50 4.6 NNW 6 6 3 3 1023.4 1023.5 0.0
30/06:00pm 14.3 12.0 2.9 46 5.2 NW 4 4 2 2 1023.2 1023.3 0.0
30/05:30pm 14.6 12.3 2.8 45 5.4 NW 4 7 2 4 1023.0 1023.1 0.0
30/05:00pm 15.3 12.1 3.1 44 5.6 NW 9 13 5 7 1023.3 1023.4 0.0
30/04:30pm 15.7 11.8 3.2 43 5.8 NNW 13 15 7 8 1023.2 1023.3 0.0
30/04:00pm 17.0 12.4 1.8 36 6.9 NNW 15 22 8 12 1022.8 1022.8 0.0
30/03:30pm 18.2 13.9 3.3 37 7.1 NNW 15 19 8 10 1022.4 1022.4 0.0
30/03:00pm 18.7 13.8 1.7 32 7.8 NNW 17 24 9 13 1022.1 1022.2 0.0
30/02:30pm 19.4 15.2 4.0 36 7.5 NNW 15 20 8 11 1021.8 1021.9 0.0
30/02:00pm 17.9 13.0 2.2 35 7.2 NNW 17 24 9 13 1021.8 1021.9 0.0
30/01:30pm 18.2 12.9 2.1 34 7.4 NNW 19 28 10 15 1022.3 1022.3 0.0
30/01:00pm 18.2 13.5 3.3 37 7.0 NNW 17 26 9 14 1022.8 1022.8 0.0
30/12:30pm 17.2 12.7 2.4 37 6.8 NNW 15 20 8 11 1023.3 1023.4 0.0
30/12:00pm 16.9 11.5 2.5 38 6.6 NNW 20 32 11 17 1023.8 1023.9 0.0
30/11:30am 16.6 11.5 3.3 41 6.2 N 19 24 10 13 1024.1 1024.2 0.0
30/11:00am 15.4 10.2 2.2 41 5.9 N 19 24 10 13 1024.5 1024.6 0.0
30/10:30am 14.6 10.8 3.7 48 5.1 NNW 13 19 7 10 1024.8 1024.9 0.0
30/10:00am 12.3 8.4 3.3 54 4.0 N 13 20 7 11 1024.9 1025.0 0.0
30/09:30am 10.5 7.9 4.4 66 2.8 N 7 11 4 6 1024.6 1024.7 0.0
30/09:00am 8.5 5.9 3.1 69 2.3 NNE 6 7 3 4 1024.7 1024.8 0.0
30/08:30am 7.2 4.9 2.5 72 2.0 N 4 6 2 3 1024.9 1025.0 0.0
30/08:00am 7.2 3.8 2.1 70 2.1 N 9 11 5 6 1024.6 1024.7 0.0
30/07:30am 6.6 3.2 1.7 71 2.0 N 9 11 5 6 1024.8 1024.9 0.0
30/07:00am 6.2 3.1 1.3 71 2.0 N 7 11 4 6 1024.7 1024.8 0.0
30/06:30am 6.0 3.1 1.5 73 1.8 N 6 7 3 4 1024.4 1024.5 0.0
30/06:00am 6.1 3.3 1.8 74 1.8 N 6 7 3 4 1024.4 1024.5 0.0
30/05:30am 6.3 3.6 2.8 78 1.5 N 6 7 3 4 1024.0 1024.1 0.0
30/05:00am 5.6 4.1 2.8 82 1.2 CALM 0 2 0 1 1023.9 1024.0 0.0
30/04:30am 5.2 3.5 2.0 80 1.3 CALM 0 0 0 0 1024.0 1024.1 0.0
30/04:00am 6.4 4.5 3.0 79 1.4 ENE 2 4 1 2 1023.9 1024.0 0.0
30/03:30am 6.3 4.8 3.1 80 1.4 CALM 0 0 0 0 1024.1 1024.2 0.0
30/03:00am 6.2 4.7 2.8 79 1.4 CALM 0 0 0 0 1024.2 1024.3 0.0
30/02:30am 6.5 5.0 2.8 77 1.6 CALM 0 0 0 0 1024.5 1024.6 0.0
30/02:00am 6.9 5.5 3.3 78 1.5 CALM 0 0 0 0 1024.2 1024.3 0.0
30/01:30am 7.1 5.7 3.7 79 1.5 CALM 0 0 0 0 1024.2 1024.3 0.0
30/01:00am 7.0 5.6 3.3 77 1.6 CALM 0 0 0 0 1024.1 1024.2 0.0
30/12:30am 7.4 5.6 3.3 75 1.8 ENE 2 6 1 3 1024.2 1024.3 0.0
30/12:00am 8.2 6.9 3.9 74 1.9 CALM 0 0 0 0 1024.4 1024.5 0.0
 
Date/Time
WST
Temp
°C
App
Temp
°C
Dew
Point
Rel
Hum
%
Delta-T
°C
Wind Press
QNH
hPa
Press
MSL
hPa
Rain
since 9 am
mm
Dir
 
Spd
km/h
Gust
km/h
Spd
kts
Gust
kts
29/11:30pm 8.3 6.9 3.8 73 2.0 CALM 0 0 0 0 1024.5 1024.6 0.0
29/11:00pm 8.6 7.3 4.0 73 2.0 CALM 0 0 0 0 1024.7 1024.8 0.0
29/10:30pm 8.7 6.9 3.7 71 2.2 N 2 4 1 2 1024.9 1025.0 0.0
29/10:00pm 9.4 8.0 3.8 68 2.5 CALM 0 2 0 1 1025.0 1025.1 0.0
29/09:30pm 10.3 9.0 4.0 65 2.8 CALM 0 0 0 0 1025.1 1025.2 0.0
29/09:00pm 10.4 9.1 4.1 65 2.8 CALM 0 2 0 1 1024.9 1025.0 0.0
29/08:30pm 10.7 9.3 3.5 61 3.2 CALM 0 0 0 0 1024.8 1024.9 0.0
29/08:00pm 11.6 10.3 4.1 60 3.4 CALM 0 0 0 0 1024.8 1024.9 0.0
29/07:30pm 12.0 9.9 3.8 57 3.7 N 4 6 2 3 1024.8 1024.9 0.0
29/07:00pm 12.7 11.4 4.2 56 3.9 CALM 0 0 0 0 1024.9 1025.0 0.0
29/06:30pm 12.4 11.2 4.4 58 3.7 CALM 0 0 0 0 1025.0 1025.1 0.0
29/06:00pm 12.9 11.6 4.3 56 4.0 CALM 0 0 0 0 1024.8 1024.9 0.0

Other Formats:

Comma delimited format used in spreadsheet applications
http://www.bom.gov.au/fwo/IDW60801/IDW60801.94641.axf

JavaScript Object Notation format (JSON) in row-major order
http://www.bom.gov.au/fwo/IDW60801/IDW60801.94641.json